Time;durP1;ratioP1;P1;durP2;ratioP2;P2;SDS_P1;SDS_P2;PMS_P1;PMS_P2;Temp;Humidity;BMP_temperature;BMP_pressure;BME280_temperature;BME280_humidity;BME280_pressure;Samples;Min_cycle;Max_cycle;Signal;HPM_P1;HPM_P2
2022/10/22 00:01:49;;;;;;;12.98;7.13;;;;;;;;;;5060365;28;20028;-83
2022/10/22 00:04:15;;;;;;;11.23;7.50;;;;;;;;;;5081217;28;20549;-83
2022/10/22 00:06:43;;;;;;;11.38;7.03;;;;;;;;;;5075138;28;20021;-83
2022/10/22 00:09:09;;;;;;;12.40;8.20;;;;;;;;;;5060698;28;20108;-83
2022/10/22 00:11:35;;;;;;;11.65;6.85;;;;;;;;;;5076545;28;20048;-83
2022/10/22 00:14:01;;;;;;;10.43;6.25;;;;;;;;;;5078947;28;20403;-83
2022/10/22 00:16:27;;;;;;;10.75;6.80;;;;;;;;;;5080147;28;20036;-83
2022/10/22 00:18:53;;;;;;;12.50;7.32;;;;;;;;;;5080521;28;20035;-83
2022/10/22 00:21:19;;;;;;;12.25;7.32;;;;;;;;;;5079708;28;20028;-83
2022/10/22 00:23:45;;;;;;;12.32;7.13;;;;;;;;;;5080912;28;20064;-82
2022/10/22 00:26:12;;;;;;;9.77;6.07;;;;;;;;;;5054462;28;20016;-83
2022/10/22 00:28:38;;;;;;;11.07;6.82;;;;;;;;;;5074887;28;20017;-83
2022/10/22 00:31:04;;;;;;;11.60;6.70;;;;;;;;;;5076290;28;20025;-82
2022/10/22 00:33:30;;;;;;;9.77;7.13;;;;;;;;;;5063119;28;20079;-82
2022/10/22 00:35:56;;;;;;;12.88;6.82;;;;;;;;;;5081408;28;20037;-83
2022/10/22 00:38:22;;;;;;;10.50;7.13;;;;;;;;;;5083818;28;20029;-83
2022/10/22 00:40:48;;;;;;;10.45;7.10;;;;;;;;;;5078204;28;20092;-82
2022/10/22 00:43:16;;;;;;;11.50;6.95;;;;;;;;;;5077968;28;20035;-83
2022/10/22 00:45:42;;;;;;;10.15;6.95;;;;;;;;;;5070930;28;20097;-84
2022/10/22 00:48:08;;;;;;;13.98;7.70;;;;;;;;;;5072696;28;20021;-83
2022/10/22 00:50:39;;;;;;;11.93;6.93;;;;;;;;;;5054656;28;20021;-82
2022/10/22 00:53:08;;;;;;;10.63;6.75;;;;;;;;;;5033313;28;20057;-81
2022/10/22 00:55:34;;;;;;;12.52;7.68;;;;;;;;;;5047079;28;20037;-81
2022/10/22 00:58:01;;;;;;;11.65;7.03;;;;;;;;;;5050269;28;20093;-80
2022/10/22 01:00:27;;;;;;;11.02;6.18;;;;;;;;;;5060006;28;20036;-80
2022/10/22 01:02:53;;;;;;;12.13;7.07;;;;;;;;;;5063562;28;20025;-80
2022/10/22 01:05:19;;;;;;;12.25;7.35;;;;;;;;;;5065047;28;20052;-80
2022/10/22 01:07:51;;;;;;;13.70;7.30;;;;;;;;;;5064824;28;20038;-81
2022/10/22 01:10:36;;;;;;;11.73;7.10;;;;;;;;;;5065377;28;20029;-81
2022/10/22 01:13:21;;;;;;;12.50;7.22;;;;;;;;;;5081720;28;20047;-81
2022/10/22 01:15:56;;;;;;;11.75;6.93;;;;;;;;;;5078466;28;20127;-80
2022/10/22 01:18:32;;;;;;;12.02;6.60;;;;;;;;;;5051281;28;20088;-81
2022/10/22 01:21:07;;;;;;;13.13;7.40;;;;;;;;;;5054822;28;20265;-82
2022/10/22 01:23:40;;;;;;;11.80;6.68;;;;;;;;;;5043573;28;20113;-79
2022/10/22 01:26:14;;;;;;;11.90;6.35;;;;;;;;;;5054478;28;20039;-81
2022/10/22 01:28:40;;;;;;;12.05;7.15;;;;;;;;;;5047431;28;20028;-79
2022/10/22 01:31:07;;;;;;;11.45;6.97;;;;;;;;;;5059613;28;20029;-79
2022/10/22 01:33:33;;;;;;;10.52;6.97;;;;;;;;;;5051041;28;20082;-81
2022/10/22 01:36:00;;;;;;;10.82;6.55;;;;;;;;;;5049495;28;20029;-82
2022/10/22 01:38:26;;;;;;;13.45;6.80;;;;;;;;;;5050210;28;20117;-79
2022/10/22 01:40:52;;;;;;;13.52;7.80;;;;;;;;;;5047549;28;20138;-82
2022/10/22 01:43:18;;;;;;;11.27;6.70;;;;;;;;;;5053001;28;20029;-80
2022/10/22 01:45:44;;;;;;;15.27;7.45;;;;;;;;;;5053346;28;20021;-81
2022/10/22 01:48:21;;;;;;;13.43;7.18;;;;;;;;;;5037934;28;20037;-84
2022/10/22 01:50:56;;;;;;;11.07;7.65;;;;;;;;;;5043885;28;20086;-81
2022/10/22 01:53:27;;;;;;;12.93;6.72;;;;;;;;;;5065149;28;20052;-81
2022/10/22 01:56:12;;;;;;;12.57;7.25;;;;;;;;;;5055006;28;20031;-81
2022/10/22 01:58:44;;;;;;;10.35;6.53;;;;;;;;;;5040341;28;20033;-81
2022/10/22 02:01:31;;;;;;;13.60;7.07;;;;;;;;;;5073447;28;20061;-80
2022/10/22 02:04:13;;;;;;;15.25;7.57;;;;;;;;;;5074841;28;20024;-81
2022/10/22 02:06:40;;;;;;;11.90;7.25;;;;;;;;;;5065934;28;20051;-81
2022/10/22 02:09:07;;;;;;;10.55;6.70;;;;;;;;;;5073692;28;20032;-83
2022/10/22 02:11:33;;;;;;;12.05;6.78;;;;;;;;;;5072946;28;20024;-81
2022/10/22 02:14:01;;;;;;;11.88;7.43;;;;;;;;;;5072935;28;20029;-81
2022/10/22 02:16:35;;;;;;;11.95;7.47;;;;;;;;;;5072300;28;20095;-81
2022/10/22 02:19:03;;;;;;;10.93;7.47;;;;;;;;;;5038949;28;20055;-81
2022/10/22 02:21:29;;;;;;;11.68;7.68;;;;;;;;;;5067971;28;20040;-80
2022/10/22 02:23:55;;;;;;;12.32;7.60;;;;;;;;;;5073591;28;20080;-81
2022/10/22 02:26:31;;;;;;;13.18;7.75;;;;;;;;;;5055323;28;20024;-83
2022/10/22 02:29:07;;;;;;;12.75;7.70;;;;;;;;;;5043894;28;20416;-80
2022/10/22 02:31:35;;;;;;;13.65;8.18;;;;;;;;;;5055254;28;20164;-80
2022/10/22 02:34:06;;;;;;;11.30;6.70;;;;;;;;;;5083273;28;20024;-81
2022/10/22 02:36:33;;;;;;;12.15;7.47;;;;;;;;;;5083871;28;20391;-80
2022/10/22 02:38:59;;;;;;;12.43;7.25;;;;;;;;;;5070001;28;20029;-80
2022/10/22 02:41:25;;;;;;;12.63;7.57;;;;;;;;;;5088572;28;20367;-80
2022/10/22 02:43:53;;;;;;;13.13;8.02;;;;;;;;;;5087771;28;20035;-80
2022/10/22 02:46:19;;;;;;;12.07;8.18;;;;;;;;;;5085393;28;20035;-80
2022/10/22 02:48:45;;;;;;;10.70;7.60;;;;;;;;;;5085883;28;20020;-80
2022/10/22 02:51:11;;;;;;;11.30;7.40;;;;;;;;;;5077209;28;20028;-81
2022/10/22 02:53:37;;;;;;;12.95;8.07;;;;;;;;;;5075754;28;20403;-82
2022/10/22 02:56:04;;;;;;;14.63;8.00;;;;;;;;;;5074083;28;20028;-85
2022/10/22 02:58:30;;;;;;;14.55;8.63;;;;;;;;;;5041808;28;20514;-80
2022/10/22 03:00:56;;;;;;;16.33;9.93;;;;;;;;;;5071757;28;20066;-81
2022/10/22 03:03:22;;;;;;;12.27;7.78;;;;;;;;;;5060146;28;20115;-81
2022/10/22 03:05:49;;;;;;;14.68;8.80;;;;;;;;;;5064429;28;20040;-80
2022/10/22 03:08:15;;;;;;;13.23;8.75;;;;;;;;;;5041796;28;20024;-81
2022/10/22 03:10:41;;;;;;;13.65;8.23;;;;;;;;;;5075313;28;20051;-80
2022/10/22 03:13:07;;;;;;;14.18;8.98;;;;;;;;;;5054868;28;20029;-84
2022/10/22 03:15:33;;;;;;;14.13;8.27;;;;;;;;;;5075167;28;20027;-82
2022/10/22 03:17:59;;;;;;;12.85;7.88;;;;;;;;;;5074679;28;20040;-81
2022/10/22 03:20:25;;;;;;;13.13;7.78;;;;;;;;;;5062177;28;20051;-81
2022/10/22 03:22:52;;;;;;;13.30;7.55;;;;;;;;;;5074936;28;20032;-81
2022/10/22 03:25:20;;;;;;;12.75;7.82;;;;;;;;;;5076966;28;20124;-79
2022/10/22 03:27:47;;;;;;;11.43;7.65;;;;;;;;;;5039813;28;20497;-79
2022/10/22 03:30:13;;;;;;;13.50;8.48;;;;;;;;;;5057337;28;20040;-80
2022/10/22 03:32:39;;;;;;;11.93;7.38;;;;;;;;;;5068051;28;20021;-82
2022/10/22 03:35:06;;;;;;;13.00;8.93;;;;;;;;;;5068561;28;20512;-80
2022/10/22 03:37:33;;;;;;;13.18;8.15;;;;;;;;;;5052419;28;20029;-80
2022/10/22 03:39:59;;;;;;;12.82;7.97;;;;;;;;;;5066541;28;20035;-80
2022/10/22 03:42:25;;;;;;;14.43;8.15;;;;;;;;;;5082354;28;20081;-80
2022/10/22 03:44:52;;;;;;;13.20;7.93;;;;;;;;;;5077835;28;20036;-81
2022/10/22 03:47:18;;;;;;;15.50;9.45;;;;;;;;;;5080077;28;20024;-81
2022/10/22 03:49:44;;;;;;;15.80;8.95;;;;;;;;;;5081086;28;20027;-81
2022/10/22 03:52:11;;;;;;;14.18;8.10;;;;;;;;;;5083763;28;20092;-80
2022/10/22 03:54:37;;;;;;;13.30;8.70;;;;;;;;;;5069138;28;20027;-80
2022/10/22 03:57:04;;;;;;;13.70;8.68;;;;;;;;;;5080500;28;20063;-80
2022/10/22 03:59:50;;;;;;;14.93;9.13;;;;;;;;;;5075871;28;20039;-81
2022/10/22 04:02:16;;;;;;;12.48;8.00;;;;;;;;;;5081946;28;20106;-79
2022/10/22 04:04:42;;;;;;;15.23;8.85;;;;;;;;;;5085851;28;20396;-79
2022/10/22 04:07:08;;;;;;;14.48;9.02;;;;;;;;;;5086794;28;20051;-81
2022/10/22 04:09:34;;;;;;;14.57;8.57;;;;;;;;;;5075348;28;20653;-83
2022/10/22 04:12:00;;;;;;;14.75;8.85;;;;;;;;;;5060698;28;20021;-83
2022/10/22 04:14:26;;;;;;;13.88;8.43;;;;;;;;;;5071659;28;20024;-83
2022/10/22 04:16:52;;;;;;;14.20;8.90;;;;;;;;;;5053631;28;20356;-83
2022/10/22 04:19:18;;;;;;;15.57;9.02;;;;;;;;;;5067872;28;20028;-84
2022/10/22 04:21:44;;;;;;;13.02;8.38;;;;;;;;;;5071752;28;20013;-83
2022/10/22 04:24:10;;;;;;;13.82;8.27;;;;;;;;;;5071030;28;20083;-80
2022/10/22 04:26:37;;;;;;;14.65;8.93;;;;;;;;;;5080639;28;20032;-80
2022/10/22 04:29:03;;;;;;;12.93;8.25;;;;;;;;;;5082197;28;20056;-84
2022/10/22 04:31:29;;;;;;;12.15;7.70;;;;;;;;;;5080097;28;20052;-80
2022/10/22 04:33:55;;;;;;;13.38;9.00;;;;;;;;;;5057419;28;20427;-83
2022/10/22 04:36:21;;;;;;;13.20;9.35;;;;;;;;;;5060590;28;20036;-84
2022/10/22 04:38:51;;;;;;;14.15;9.02;;;;;;;;;;5073586;28;20025;-83
2022/10/22 04:41:19;;;;;;;16.45;9.00;;;;;;;;;;5075996;28;20025;-80
2022/10/22 04:43:46;;;;;;;15.18;8.98;;;;;;;;;;5073796;28;20028;-80
2022/10/22 04:46:12;;;;;;;12.77;9.02;;;;;;;;;;5063793;28;20020;-80
2022/10/22 04:48:40;;;;;;;13.85;8.52;;;;;;;;;;5061763;28;20041;-83
2022/10/22 04:51:06;;;;;;;13.82;9.50;;;;;;;;;;5058192;28;20021;-83
2022/10/22 04:53:34;;;;;;;14.90;9.43;;;;;;;;;;5069440;28;20051;-82
2022/10/22 04:56:10;;;;;;;13.88;8.32;;;;;;;;;;5059182;28;20713;-83
2022/10/22 04:58:37;;;;;;;13.93;8.70;;;;;;;;;;5056754;28;20059;-84
2022/10/22 05:01:10;;;;;;;15.05;9.00;;;;;;;;;;5059841;28;20603;-83
2022/10/22 05:03:36;;;;;;;13.95;8.82;;;;;;;;;;5073568;28;20043;-80
2022/10/22 05:06:02;;;;;;;17.42;10.55;;;;;;;;;;5076246;28;20418;-84
2022/10/22 05:08:28;;;;;;;14.30;9.70;;;;;;;;;;5076660;28;20084;-83
2022/10/22 05:10:54;;;;;;;15.75;9.05;;;;;;;;;;5065806;28;20061;-83
2022/10/22 05:13:20;;;;;;;14.73;9.30;;;;;;;;;;5070452;28;20418;-81
2022/10/22 05:15:46;;;;;;;16.77;9.77;;;;;;;;;;5079280;28;20029;-82
2022/10/22 05:18:12;;;;;;;17.48;9.73;;;;;;;;;;5062677;28;20047;-82
2022/10/22 05:20:42;;;;;;;15.15;9.25;;;;;;;;;;5079546;28;20020;-82
2022/10/22 05:23:08;;;;;;;14.90;9.73;;;;;;;;;;5081704;28;20089;-82
2022/10/22 05:25:38;;;;;;;15.05;9.45;;;;;;;;;;5062771;28;20033;-83
2022/10/22 05:28:04;;;;;;;14.35;9.93;;;;;;;;;;5055875;28;20116;-81
2022/10/22 05:30:30;;;;;;;14.90;9.77;;;;;;;;;;5038043;28;20036;-81
2022/10/22 05:32:56;;;;;;;15.07;8.60;;;;;;;;;;5063682;28;20037;-81
2022/10/22 05:35:22;;;;;;;14.82;10.50;;;;;;;;;;5054752;28;20044;-82
2022/10/22 05:37:48;;;;;;;17.90;11.60;;;;;;;;;;5068874;28;20029;-81
2022/10/22 05:40:14;;;;;;;17.85;11.30;;;;;;;;;;5061732;28;20108;-80
2022/10/22 05:42:40;;;;;;;18.20;10.82;;;;;;;;;;5058370;28;20060;-80
2022/10/22 05:45:07;;;;;;;19.60;10.75;;;;;;;;;;5075820;28;20033;-80
2022/10/22 05:47:33;;;;;;;13.85;9.90;;;;;;;;;;5064780;28;20116;-81
2022/10/22 05:49:59;;;;;;;16.15;11.18;;;;;;;;;;5052977;28;20036;-81
2022/10/22 05:52:25;;;;;;;15.63;10.65;;;;;;;;;;5074737;28;20048;-81
2022/10/22 05:54:51;;;;;;;16.13;10.15;;;;;;;;;;5059933;28;20024;-79
2022/10/22 05:57:18;;;;;;;17.58;10.50;;;;;;;;;;5064871;28;20062;-82
2022/10/22 05:59:44;;;;;;;15.32;10.18;;;;;;;;;;5060569;28;20028;-80
2022/10/22 06:02:10;;;;;;;15.20;10.07;;;;;;;;;;5074257;28;20502;-79
2022/10/22 06:04:36;;;;;;;14.90;9.68;;;;;;;;;;5061505;28;20032;-81
2022/10/22 06:07:02;;;;;;;17.77;10.45;;;;;;;;;;5067154;28;20025;-80
2022/10/22 06:09:30;;;;;;;16.70;10.07;;;;;;;;;;5064792;28;20104;-81
2022/10/22 06:11:56;;;;;;;17.45;11.57;;;;;;;;;;5052528;28;20017;-81
2022/10/22 06:14:23;;;;;;;22.00;12.68;;;;;;;;;;5052429;28;20545;-82
2022/10/22 06:16:49;;;;;;;18.75;11.60;;;;;;;;;;5059601;28;20037;-83
2022/10/22 06:19:16;;;;;;;16.02;11.05;;;;;;;;;;5078129;28;20718;-82
2022/10/22 06:21:42;;;;;;;20.05;11.65;;;;;;;;;;5074885;28;20028;-84
2022/10/22 06:24:09;;;;;;;16.90;11.05;;;;;;;;;;5042435;28;20567;-83
2022/10/22 06:26:35;;;;;;;16.35;11.20;;;;;;;;;;5061860;28;20029;-82
2022/10/22 06:29:01;;;;;;;14.98;10.60;;;;;;;;;;5065077;28;20025;-82
2022/10/22 06:31:27;;;;;;;15.70;10.65;;;;;;;;;;5066451;28;20027;-82
2022/10/22 06:33:53;;;;;;;21.58;12.50;;;;;;;;;;5063302;28;20028;-82
2022/10/22 06:36:21;;;;;;;18.23;12.15;;;;;;;;;;5064003;28;20599;-83
2022/10/22 06:38:51;;;;;;;16.30;10.55;;;;;;;;;;5063231;28;20032;-83
2022/10/22 06:41:17;;;;;;;17.83;10.73;;;;;;;;;;5061847;28;20088;-84
2022/10/22 06:43:45;;;;;;;19.42;11.73;;;;;;;;;;5061258;28;20032;-83
2022/10/22 06:46:12;;;;;;;18.08;11.20;;;;;;;;;;5075502;28;20028;-81
2022/10/22 06:48:39;;;;;;;19.67;10.77;;;;;;;;;;5063025;28;20115;-83
2022/10/22 06:51:06;;;;;;;16.90;10.98;;;;;;;;;;5070094;28;20550;-83
2022/10/22 06:53:32;;;;;;;16.50;10.43;;;;;;;;;;5060509;28;20084;-83
2022/10/22 06:55:59;;;;;;;21.75;11.35;;;;;;;;;;5069681;28;20040;-83
2022/10/22 06:58:25;;;;;;;16.00;9.80;;;;;;;;;;5070685;28;20028;-83
2022/10/22 07:01:00;;;;;;;16.58;10.77;;;;;;;;;;5079644;28;20399;-80
2022/10/22 07:03:26;;;;;;;14.95;9.98;;;;;;;;;;5057894;28;20017;-81
2022/10/22 07:05:52;;;;;;;15.82;9.98;;;;;;;;;;5055177;28;20111;-81
2022/10/22 07:08:17;;;;;;;14.15;9.60;;;;;;;;;;5058938;28;20025;-80
2022/10/22 07:10:43;;;;;;;15.00;9.82;;;;;;;;;;5069474;28;20065;-80
2022/10/22 07:13:09;;;;;;;14.25;9.50;;;;;;;;;;5071432;28;20021;-80
2022/10/22 07:15:35;;;;;;;16.65;9.82;;;;;;;;;;5061674;28;20037;-81
2022/10/22 07:18:03;;;;;;;15.73;9.95;;;;;;;;;;5068043;28;20065;-79
2022/10/22 07:20:29;;;;;;;16.20;9.65;;;;;;;;;;5083036;28;20024;-83
2022/10/22 07:22:55;;;;;;;16.00;10.10;;;;;;;;;;5082303;28;20028;-83
2022/10/22 07:25:21;;;;;;;14.18;9.32;;;;;;;;;;5064763;28;20023;-80
2022/10/22 07:27:47;;;;;;;15.50;9.57;;;;;;;;;;5069668;28;20052;-80
2022/10/22 07:30:13;;;;;;;19.02;10.75;;;;;;;;;;5071773;28;20025;-81
2022/10/22 07:32:39;;;;;;;14.73;9.65;;;;;;;;;;5077415;28;20032;-80
2022/10/22 07:35:06;;;;;;;17.50;10.65;;;;;;;;;;5074255;28;20064;-80
2022/10/22 07:37:32;;;;;;;15.95;10.38;;;;;;;;;;5077114;28;20392;-79
2022/10/22 07:39:58;;;;;;;16.42;10.27;;;;;;;;;;5054825;28;20032;-80
2022/10/22 07:42:24;;;;;;;16.10;10.15;;;;;;;;;;5074940;28;20067;-81
2022/10/22 07:44:50;;;;;;;15.00;9.75;;;;;;;;;;5076131;28;20058;-80
2022/10/22 07:47:16;;;;;;;13.20;9.48;;;;;;;;;;5066763;28;20184;-81
2022/10/22 07:49:42;;;;;;;15.63;9.60;;;;;;;;;;5075951;28;20031;-81
2022/10/22 07:52:08;;;;;;;14.38;9.25;;;;;;;;;;5064083;28;20068;-81
2022/10/22 07:54:34;;;;;;;17.13;9.88;;;;;;;;;;5067844;28;20092;-80
2022/10/22 07:57:00;;;;;;;17.77;9.70;;;;;;;;;;5068238;28;20095;-84
2022/10/22 07:59:26;;;;;;;15.90;9.55;;;;;;;;;;5060823;28;20049;-83
2022/10/22 08:01:52;;;;;;;15.50;10.27;;;;;;;;;;5077880;28;20032;-82
2022/10/22 08:04:18;;;;;;;15.60;9.73;;;;;;;;;;5077346;28;20055;-83
2022/10/22 08:06:44;;;;;;;15.32;10.05;;;;;;;;;;5078339;28;20021;-81
2022/10/22 08:09:10;;;;;;;17.63;10.35;;;;;;;;;;5058837;28;20087;-81
2022/10/22 08:11:37;;;;;;;15.45;9.13;;;;;;;;;;5083907;28;20028;-82
2022/10/22 08:14:03;;;;;;;14.05;8.88;;;;;;;;;;5065358;28;20123;-81
2022/10/22 08:16:29;;;;;;;15.77;9.57;;;;;;;;;;5074460;28;20048;-81
2022/10/22 08:18:55;;;;;;;14.77;9.07;;;;;;;;;;5051737;28;20060;-81
2022/10/22 08:21:21;;;;;;;13.75;8.95;;;;;;;;;;5069471;28;20025;-82
2022/10/22 08:23:47;;;;;;;13.57;9.05;;;;;;;;;;5072798;28;20040;-81
2022/10/22 08:26:13;;;;;;;13.75;9.35;;;;;;;;;;5071017;28;20021;-81
2022/10/22 08:28:39;;;;;;;14.90;9.52;;;;;;;;;;5055054;28;20020;-82
2022/10/22 08:31:06;;;;;;;13.38;8.65;;;;;;;;;;5064165;28;20021;-82
2022/10/22 08:33:32;;;;;;;16.08;11.07;;;;;;;;;;5074065;28;20024;-82
2022/10/22 08:35:59;;;;;;;15.23;10.15;;;;;;;;;;5070062;28;20121;-81
2022/10/22 08:38:25;;;;;;;17.75;10.70;;;;;;;;;;5085468;28;20033;-82
2022/10/22 08:40:52;;;;;;;16.45;10.98;;;;;;;;;;5065870;28;20025;-82
2022/10/22 08:43:34;;;;;;;16.52;10.38;;;;;;;;;;5068758;28;20032;-81
2022/10/22 08:46:00;;;;;;;16.60;10.98;;;;;;;;;;5061666;28;20017;-82
2022/10/22 08:48:46;;;;;;;16.10;11.13;;;;;;;;;;5065731;28;20029;-82
2022/10/22 08:51:15;;;;;;;15.52;10.65;;;;;;;;;;5070502;28;20013;-82
2022/10/22 08:53:57;;;;;;;15.25;10.18;;;;;;;;;;5083205;28;20048;-82
2022/10/22 08:56:23;;;;;;;16.92;10.82;;;;;;;;;;5084473;28;20032;-82
2022/10/22 08:58:53;;;;;;;17.80;11.35;;;;;;;;;;5084630;28;20092;-83
2022/10/22 09:01:22;;;;;;;18.55;12.35;;;;;;;;;;5058995;28;20049;-82
2022/10/22 09:04:01;;;;;;;20.50;12.90;;;;;;;;;;5083631;28;20016;-82
2022/10/22 09:06:28;;;;;;;20.05;12.10;;;;;;;;;;5075753;28;20488;-81
2022/10/22 09:08:57;;;;;;;18.75;13.52;;;;;;;;;;5076445;28;20029;-81
2022/10/22 09:11:26;;;;;;;18.30;13.20;;;;;;;;;;5063947;28;20036;-81
2022/10/22 09:13:53;;;;;;;20.95;13.07;;;;;;;;;;5078951;28;20028;-82
2022/10/22 09:16:20;;;;;;;19.42;12.48;;;;;;;;;;5047654;28;20041;-80
2022/10/22 09:19:09;;;;;;;19.73;12.80;;;;;;;;;;5062795;28;20047;-81
2022/10/22 09:22:01;;;;;;;19.83;13.88;;;;;;;;;;5053806;28;20037;-81
2022/10/22 09:24:38;;;;;;;18.40;13.73;;;;;;;;;;4994768;28;20129;-81
2022/10/22 09:27:12;;;;;;;19.58;13.25;;;;;;;;;;4991911;28;20034;-81
2022/10/22 09:29:38;;;;;;;20.80;15.07;;;;;;;;;;4991295;28;20131;-82
2022/10/22 09:32:04;;;;;;;19.77;13.80;;;;;;;;;;4991494;28;20035;-82
2022/10/22 09:34:30;;;;;;;21.27;14.75;;;;;;;;;;4992362;28;20034;-81
2022/10/22 09:36:59;;;;;;;20.45;13.68;;;;;;;;;;4990491;28;20027;-80
2022/10/22 09:39:31;;;;;;;21.63;15.05;;;;;;;;;;4990310;28;20493;-81
2022/10/22 09:41:58;;;;;;;21.63;14.90;;;;;;;;;;4975147;28;20035;-79
2022/10/22 09:44:24;;;;;;;20.98;13.20;;;;;;;;;;4973607;28;20031;-79
2022/10/22 09:46:50;;;;;;;24.13;14.15;;;;;;;;;;4973269;28;20090;-80
2022/10/22 09:49:17;;;;;;;28.95;14.73;;;;;;;;;;4978373;28;20042;-80
2022/10/22 09:52:11;;;;;;;21.23;15.35;;;;;;;;;;4983284;28;20110;-81
2022/10/22 09:54:41;;;;;;;20.98;14.07;;;;;;;;;;4999173;28;20042;-80
2022/10/22 09:57:10;;;;;;;25.70;16.08;;;;;;;;;;4997598;28;20113;-82
2022/10/22 09:59:40;;;;;;;26.63;17.67;;;;;;;;;;4983134;28;20105;-80
2022/10/22 10:02:10;;;;;;;26.98;16.92;;;;;;;;;;5045307;28;20024;-82
2022/10/22 10:04:40;;;;;;;23.60;15.30;;;;;;;;;;5079145;28;20085;-83
2022/10/22 10:07:15;;;;;;;28.58;16.98;;;;;;;;;;5069341;28;20025;-82
2022/10/22 10:09:41;;;;;;;25.00;16.85;;;;;;;;;;5057881;28;20032;-82
2022/10/22 10:12:07;;;;;;;24.75;16.83;;;;;;;;;;5065197;28;20032;-83
2022/10/22 10:14:53;;;;;;;25.88;15.98;;;;;;;;;;5073905;28;20032;-82
2022/10/22 10:17:25;;;;;;;23.33;14.98;;;;;;;;;;5028252;28;20048;-82
2022/10/22 10:19:54;;;;;;;26.73;16.00;;;;;;;;;;5054708;28;20048;-83
2022/10/22 10:22:32;;;;;;;21.90;15.18;;;;;;;;;;5051810;28;20044;-82
2022/10/22 10:24:58;;;;;;;24.27;16.08;;;;;;;;;;5076024;28;20110;-81
2022/10/22 10:27:30;;;;;;;25.55;17.80;;;;;;;;;;5078365;28;20020;-82
2022/10/22 10:30:08;;;;;;;26.57;17.43;;;;;;;;;;5076686;28;20510;-83
2022/10/22 10:32:34;;;;;;;26.65;15.90;;;;;;;;;;5076437;28;20278;-80
2022/10/22 10:35:10;;;;;;;28.63;18.25;;;;;;;;;;5070010;28;20031;-80
2022/10/22 10:37:46;;;;;;;27.45;17.23;;;;;;;;;;5071671;28;20036;-81
2022/10/22 10:40:22;;;;;;;25.30;17.23;;;;;;;;;;5065416;28;20025;-80
2022/10/22 10:42:48;;;;;;;26.30;17.42;;;;;;;;;;5070342;28;20036;-82
2022/10/22 10:45:26;;;;;;;30.75;18.85;;;;;;;;;;5076945;28;20033;-82
2022/10/22 10:47:52;;;;;;;28.80;19.20;;;;;;;;;;5048671;28;20052;-82
2022/10/22 10:50:23;;;;;;;28.45;18.52;;;;;;;;;;5051029;28;20028;-82
2022/10/22 10:52:53;;;;;;;25.77;18.40;;;;;;;;;;5074850;28;20044;-81
2022/10/22 10:55:29;;;;;;;27.30;18.27;;;;;;;;;;5061528;28;20056;-81
2022/10/22 10:57:55;;;;;;;30.55;18.83;;;;;;;;;;5059332;28;20028;-81
2022/10/22 11:00:21;;;;;;;25.63;16.15;;;;;;;;;;5074199;28;20143;-82
2022/10/22 11:02:56;;;;;;;28.50;18.95;;;;;;;;;;5059736;28;20051;-81
2022/10/22 11:05:26;;;;;;;27.85;19.67;;;;;;;;;;5073823;28;20074;-82
2022/10/22 11:07:57;;;;;;;27.95;18.05;;;;;;;;;;5078386;28;20024;-81
2022/10/22 11:10:23;;;;;;;27.27;18.08;;;;;;;;;;5070454;28;20443;-81
2022/10/22 11:12:51;;;;;;;30.35;20.52;;;;;;;;;;5061388;28;20047;-80
2022/10/22 11:15:17;;;;;;;28.65;17.90;;;;;;;;;;5077288;28;20029;-82
2022/10/22 11:17:45;;;;;;;28.08;17.55;;;;;;;;;;5076235;28;20570;-80
2022/10/22 11:20:19;;;;;;;27.80;18.58;;;;;;;;;;5078251;28;20118;-81
2022/10/22 11:22:51;;;;;;;25.75;17.73;;;;;;;;;;5078676;28;20067;-81
2022/10/22 11:25:17;;;;;;;29.92;19.25;;;;;;;;;;5077864;28;20423;-80
2022/10/22 11:28:03;;;;;;;27.83;18.02;;;;;;;;;;5078475;28;20017;-82
2022/10/22 11:30:36;;;;;;;29.50;19.10;;;;;;;;;;5079584;28;20116;-82
2022/10/22 11:33:05;;;;;;;26.10;18.70;;;;;;;;;;5077436;28;20517;-81
2022/10/22 11:35:32;;;;;;;30.30;19.10;;;;;;;;;;5061749;28;20025;-82
2022/10/22 11:37:59;;;;;;;31.90;19.77;;;;;;;;;;5078483;28;20097;-81
2022/10/22 11:40:28;;;;;;;28.85;18.95;;;;;;;;;;5079984;28;20029;-82
2022/10/22 11:43:10;;;;;;;32.00;20.30;;;;;;;;;;5078526;28;20036;-81
2022/10/22 11:45:40;;;;;;;32.67;20.30;;;;;;;;;;5058385;28;20044;-81
2022/10/22 11:48:06;;;;;;;36.53;21.35;;;;;;;;;;5074066;28;20107;-82
2022/10/22 11:50:55;;;;;;;30.80;21.08;;;;;;;;;;5072092;28;20075;-82
2022/10/22 11:53:29;;;;;;;33.50;21.17;;;;;;;;;;5060619;28;20041;-81
2022/10/22 11:55:58;;;;;;;30.13;19.80;;;;;;;;;;5064034;28;20032;-79
2022/10/22 11:58:27;;;;;;;31.42;20.90;;;;;;;;;;5077989;28;20171;-80
2022/10/22 12:01:16;;;;;;;27.90;19.08;;;;;;;;;;5051226;28;20174;-80
2022/10/22 12:03:51;;;;;;;34.42;20.13;;;;;;;;;;5066941;28;20032;-79
2022/10/22 12:06:19;;;;;;;31.25;19.88;;;;;;;;;;5078720;28;20024;-79
2022/10/22 12:09:06;;;;;;;29.17;18.73;;;;;;;;;;5078114;28;20090;-79
2022/10/22 12:11:39;;;;;;;32.45;19.45;;;;;;;;;;5075530;28;20016;-79
2022/10/22 12:14:25;;;;;;;29.77;19.05;;;;;;;;;;5077558;28;20510;-79
2022/10/22 12:17:11;;;;;;;26.92;18.85;;;;;;;;;;5075883;28;20028;-79
2022/10/22 12:19:43;;;;;;;27.48;18.65;;;;;;;;;;5078364;28;20052;-79
2022/10/22 12:22:17;;;;;;;30.35;19.85;;;;;;;;;;5077872;28;20035;-80
2022/10/22 12:24:45;;;;;;;30.60;20.92;;;;;;;;;;5077177;28;20108;-79
2022/10/22 12:27:22;;;;;;;29.10;19.85;;;;;;;;;;5079376;28;20029;-78
2022/10/22 12:29:49;;;;;;;32.80;21.10;;;;;;;;;;5081537;28;20100;-78
2022/10/22 12:32:15;;;;;;;33.97;20.67;;;;;;;;;;5079141;28;20021;-79
2022/10/22 12:34:45;;;;;;;32.85;20.60;;;;;;;;;;5070609;28;20013;-78
2022/10/22 12:37:13;;;;;;;31.73;21.13;;;;;;;;;;5054170;28;20493;-77
2022/10/22 12:39:39;;;;;;;31.92;21.23;;;;;;;;;;5035719;28;20369;-79
2022/10/22 12:42:05;;;;;;;32.40;20.98;;;;;;;;;;5071704;28;20067;-78
2022/10/22 12:44:32;;;;;;;35.80;22.83;;;;;;;;;;5070959;28;20032;-79
2022/10/22 12:46:58;;;;;;;32.97;21.25;;;;;;;;;;5054465;28;20043;-78
2022/10/22 12:49:43;;;;;;;35.17;22.08;;;;;;;;;;5051507;28;20025;-79
2022/10/22 12:52:14;;;;;;;34.90;20.55;;;;;;;;;;5076204;28;20088;-82
2022/10/22 12:54:40;;;;;;;30.88;20.17;;;;;;;;;;5056556;28;20032;-82
2022/10/22 12:57:10;;;;;;;34.55;22.10;;;;;;;;;;5077923;28;20024;-82
2022/10/22 12:59:37;;;;;;;32.33;21.15;;;;;;;;;;5077792;28;20480;-80
2022/10/22 13:02:20;;;;;;;37.63;21.42;;;;;;;;;;5078622;28;20028;-82
2022/10/22 13:05:04;;;;;;;37.65;23.58;;;;;;;;;;5059701;28;20040;-82
2022/10/22 13:07:37;;;;;;;33.33;20.85;;;;;;;;;;5079027;28;20038;-83
2022/10/22 13:10:15;;;;;;;38.72;23.08;;;;;;;;;;5078549;28;20448;-82
2022/10/22 13:12:44;;;;;;;34.20;22.77;;;;;;;;;;5076953;28;20332;-81
2022/10/22 13:15:20;;;;;;;34.80;22.17;;;;;;;;;;5069199;28;20078;-78
2022/10/22 13:17:47;;;;;;;31.58;21.63;;;;;;;;;;5057104;28;20035;-78
2022/10/22 13:20:21;;;;;;;34.17;22.50;;;;;;;;;;5051120;28;20379;-78
2022/10/22 13:23:01;;;;;;;33.70;21.75;;;;;;;;;;5041970;28;20064;-79
2022/10/22 13:25:27;;;;;;;40.50;25.15;;;;;;;;;;5055836;28;20032;-78
2022/10/22 13:28:25;;;;;;;35.45;24.27;;;;;;;;;;5053623;28;20108;-79
2022/10/22 13:31:02;;;;;;;37.33;23.33;;;;;;;;;;4964961;28;20038;-78
2022/10/22 13:33:39;;;;;;;38.78;23.73;;;;;;;;;;4973704;28;20019;-78
2022/10/22 13:36:06;;;;;;;36.83;22.35;;;;;;;;;;4989293;28;20449;-79
2022/10/22 13:38:32;;;;;;;34.15;22.10;;;;;;;;;;4986628;28;20039;-79
2022/10/22 13:40:58;;;;;;;31.75;22.30;;;;;;;;;;4986395;28;20104;-79
2022/10/22 13:43:24;;;;;;;35.22;23.42;;;;;;;;;;4978948;28;20031;-78
2022/10/22 13:46:00;;;;;;;32.53;21.65;;;;;;;;;;4971964;28;20564;-79
2022/10/22 13:48:27;;;;;;;29.85;20.75;;;;;;;;;;4979409;28;20409;-79
2022/10/22 13:50:53;;;;;;;33.65;22.52;;;;;;;;;;4989252;28;20023;-78
2022/10/22 13:53:23;;;;;;;30.42;21.25;;;;;;;;;;4986382;28;20057;-79
2022/10/22 13:55:49;;;;;;;30.60;20.83;;;;;;;;;;4988418;28;20060;-79
2022/10/22 13:58:19;;;;;;;32.15;21.35;;;;;;;;;;4968168;28;20537;-78
2022/10/22 14:00:47;;;;;;;32.40;21.52;;;;;;;;;;4964289;28;20495;-78
2022/10/22 14:03:18;;;;;;;32.10;21.65;;;;;;;;;;4978314;28;20030;-79
2022/10/22 14:05:48;;;;;;;32.08;21.17;;;;;;;;;;4988067;28;20073;-79
2022/10/22 14:08:16;;;;;;;32.55;21.02;;;;;;;;;;5062993;28;20170;-79
2022/10/22 14:10:42;;;;;;;31.58;23.23;;;;;;;;;;5070715;28;20036;-80
2022/10/22 14:13:11;;;;;;;32.13;21.63;;;;;;;;;;5065183;28;20025;-80
2022/10/22 14:15:37;;;;;;;30.83;21.63;;;;;;;;;;5044588;28;20106;-79
2022/10/22 14:18:05;;;;;;;29.92;22.40;;;;;;;;;;5067200;28;20025;-79
2022/10/22 14:20:31;;;;;;;34.03;22.00;;;;;;;;;;5058603;28;20061;-80
2022/10/22 14:23:01;;;;;;;32.67;21.70;;;;;;;;;;5051879;28;20052;-79
2022/10/22 14:25:30;;;;;;;35.58;23.58;;;;;;;;;;5060888;28;20028;-76
2022/10/22 14:27:56;;;;;;;32.10;22.65;;;;;;;;;;5039025;28;20021;-78
2022/10/22 14:30:25;;;;;;;37.42;24.13;;;;;;;;;;5050498;28;20025;-79
2022/10/22 14:32:51;;;;;;;38.47;24.30;;;;;;;;;;5061114;28;20025;-80
2022/10/22 14:35:21;;;;;;;37.60;23.33;;;;;;;;;;5042912;28;20024;-79